createdAt,value
2023-04-30T00:01:00.644Z,100284.91
2023-04-30T00:04:03.736Z,100269.59
2023-04-30T00:07:06.285Z,100286.09
2023-04-30T00:10:11.096Z,100282.06
2023-04-30T00:13:14.180Z,100268.94
2023-04-30T00:16:16.783Z,100269.94
2023-04-30T00:19:19.275Z,100284.53
2023-04-30T00:22:22.169Z,100278.00
2023-04-30T00:25:24.970Z,100265.69
2023-04-30T00:28:27.655Z,100267.28
2023-04-30T00:31:30.179Z,100278.66
2023-04-30T00:34:32.796Z,100276.22
2023-04-30T00:37:35.858Z,100279.59
2023-04-30T00:40:42.118Z,100282.63
2023-04-30T00:43:46.960Z,100267.28
2023-04-30T00:46:49.452Z,100253.81
2023-04-30T00:49:52.387Z,100275.41
2023-04-30T00:52:55.815Z,100273.03
2023-04-30T00:55:59.120Z,100266.28
2023-04-30T00:59:02.335Z,100276.94
2023-04-30T01:02:04.842Z,100258.56
2023-04-30T01:05:08.373Z,100271.72
2023-04-30T01:08:12.345Z,100268.84
2023-04-30T01:11:24.114Z,100266.69
2023-04-30T01:15:09.341Z,100268.72
2023-04-30T01:18:28.427Z,100268.19
2023-04-30T01:21:33.580Z,100263.47
2023-04-30T01:25:00.987Z,100272.25
2023-04-30T01:28:24.989Z,100262.31
2023-04-30T01:31:28.244Z,100264.38
2023-04-30T01:34:30.750Z,100257.03
2023-04-30T01:38:08.193Z,100262.41
2023-04-30T01:41:21.590Z,100266.97
2023-04-30T01:44:47.696Z,100261.22
2023-04-30T01:48:01.000Z,100258.22
2023-04-30T01:51:32.728Z,100273.59
2023-04-30T01:54:49.259Z,100263.38
2023-04-30T01:58:02.918Z,100239.59
2023-04-30T02:01:06.114Z,100258.34
2023-04-30T02:04:08.972Z,100266.34
2023-04-30T02:07:13.262Z,100256.94
2023-04-30T02:10:17.917Z,100269.53
2023-04-30T02:13:20.398Z,100254.94
2023-04-30T02:16:23.927Z,100249.56
2023-04-30T02:19:26.684Z,100245.53
2023-04-30T02:22:29.334Z,100243.13
2023-04-30T02:25:33.097Z,100255.75
2023-04-30T02:28:36.189Z,100251.75
2023-04-30T02:31:38.808Z,100247.78
2023-04-30T02:34:45.251Z,100254.19
2023-04-30T02:37:47.785Z,100252.00
2023-04-30T02:40:50.429Z,100263.44
2023-04-30T02:43:53.162Z,100248.59
2023-04-30T02:46:55.543Z,100266.78
2023-04-30T02:49:57.944Z,100269.59
2023-04-30T02:53:00.571Z,100256.44
2023-04-30T02:56:03.292Z,100273.03
2023-04-30T02:59:06.216Z,100264.25
2023-04-30T03:02:08.734Z,100253.84
2023-04-30T03:05:11.645Z,100269.63
2023-04-30T03:08:14.157Z,100278.28
2023-04-30T03:11:16.612Z,100268.88
2023-04-30T03:14:19.860Z,100273.97
2023-04-30T03:17:23.648Z,100254.03
2023-04-30T03:20:26.760Z,100243.03
2023-04-30T03:23:29.243Z,100260.06
2023-04-30T03:26:31.702Z,100261.47
2023-04-30T03:29:34.566Z,100270.28
2023-04-30T03:32:37.517Z,100265.88
2023-04-30T03:35:40.324Z,100263.66
2023-04-30T03:38:43.072Z,100279.44
2023-04-30T03:41:45.543Z,100270.25
2023-04-30T03:44:48.038Z,100288.81
2023-04-30T03:47:51.455Z,100285.38
2023-04-30T03:50:54.236Z,100286.84
2023-04-30T03:53:56.986Z,100279.81
2023-04-30T03:57:00.471Z,100285.38
2023-04-30T04:00:07.771Z,100276.78
2023-04-30T04:03:16.523Z,100270.75
2023-04-30T04:06:19.293Z,100284.72
2023-04-30T04:09:22.913Z,100289.97
2023-04-30T04:12:25.883Z,100295.00
2023-04-30T04:15:28.385Z,100305.78
2023-04-30T04:18:30.906Z,100306.81
2023-04-30T04:21:33.593Z,100280.41
2023-04-30T04:24:39.681Z,100316.31
2023-04-30T04:27:42.630Z,100314.47
2023-04-30T04:30:45.834Z,100300.09
2023-04-30T04:33:48.385Z,100317.63
2023-04-30T04:36:50.870Z,100328.78
2023-04-30T04:39:53.736Z,100327.28
2023-04-30T04:42:57.251Z,100315.44
2023-04-30T04:45:59.730Z,100339.41
2023-04-30T04:49:02.584Z,100337.34
2023-04-30T04:52:05.547Z,100333.59
2023-04-30T04:55:08.491Z,100335.25
2023-04-30T04:58:12.041Z,100352.28
2023-04-30T05:01:15.482Z,100350.59
2023-04-30T05:04:18.089Z,100357.91
2023-04-30T05:07:21.415Z,100365.50
2023-04-30T05:10:23.882Z,100352.84
2023-04-30T05:13:27.063Z,100362.22
2023-04-30T05:16:30.333Z,100345.94
2023-04-30T05:19:33.252Z,100362.47
2023-04-30T05:22:35.681Z,100352.63
2023-04-30T05:25:38.367Z,100368.16
2023-04-30T05:28:41.085Z,100346.84
2023-04-30T05:31:43.791Z,100352.34
2023-04-30T05:34:46.489Z,100360.31
2023-04-30T05:37:49.072Z,100366.75
2023-04-30T05:40:51.729Z,100352.34
2023-04-30T05:43:54.288Z,100374.34
2023-04-30T05:46:56.766Z,100371.53
2023-04-30T05:49:59.152Z,100375.09
2023-04-30T05:53:01.774Z,100384.19
2023-04-30T05:56:04.333Z,100381.84
2023-04-30T05:59:07.232Z,100385.06
2023-04-30T06:02:09.753Z,100389.25
2023-04-30T06:05:14.004Z,100387.00
2023-04-30T06:08:18.590Z,100368.47
2023-04-30T06:11:21.513Z,100368.63
2023-04-30T06:14:24.142Z,100376.94
2023-04-30T06:17:26.596Z,100364.13
2023-04-30T06:20:29.325Z,100371.78
2023-04-30T06:23:31.954Z,100366.25
2023-04-30T06:26:34.519Z,100368.31
2023-04-30T06:29:37.021Z,100376.16
2023-04-30T06:32:40.016Z,100379.00
2023-04-30T06:35:42.500Z,100379.94
2023-04-30T06:38:45.529Z,100367.84
2023-04-30T06:41:48.120Z,100366.59
2023-04-30T06:44:50.904Z,100369.78
2023-04-30T06:47:53.583Z,100377.63
2023-04-30T06:50:56.640Z,100382.03
2023-04-30T06:53:59.179Z,100367.31
2023-04-30T06:57:01.995Z,100377.84
2023-04-30T07:00:06.684Z,100384.66
2023-04-30T07:03:09.277Z,100377.44
2023-04-30T07:06:11.989Z,100377.13
2023-04-30T07:09:15.740Z,100370.41
2023-04-30T07:12:18.235Z,100355.13
2023-04-30T07:15:20.698Z,100368.50
2023-04-30T07:18:23.165Z,100373.56
2023-04-30T07:21:26.223Z,100372.03
2023-04-30T07:24:29.042Z,100390.22
2023-04-30T07:27:31.486Z,100380.28
2023-04-30T07:30:34.270Z,100381.84
2023-04-30T07:33:37.035Z,100385.59
2023-04-30T07:36:39.741Z,100378.84
2023-04-30T07:39:42.528Z,100378.94
2023-04-30T07:42:45.335Z,100382.25
2023-04-30T07:45:49.540Z,100387.31
2023-04-30T07:48:52.420Z,100386.81
2023-04-30T07:51:54.895Z,100385.06
2023-04-30T07:54:57.940Z,100373.00
2023-04-30T07:58:00.453Z,100384.66
2023-04-30T08:01:03.931Z,100368.19
2023-04-30T08:04:07.423Z,100368.13
2023-04-30T08:07:10.090Z,100392.38
2023-04-30T08:10:12.887Z,100386.88
2023-04-30T08:13:15.754Z,100394.16
2023-04-30T08:16:18.299Z,100390.81
2023-04-30T08:19:20.893Z,100392.16
2023-04-30T08:22:23.799Z,100392.16
2023-04-30T08:25:26.423Z,100384.03
2023-04-30T08:28:29.210Z,100390.88
2023-04-30T08:31:31.750Z,100367.22
2023-04-30T08:34:34.854Z,100396.41
2023-04-30T08:37:37.644Z,100383.66
2023-04-30T08:43:49.099Z,100387.13
2023-04-30T08:46:54.329Z,100392.25
2023-04-30T08:49:57.159Z,100389.53
2023-04-30T08:53:00.919Z,100397.50
2023-04-30T08:56:04.380Z,100394.09
2023-04-30T08:59:07.867Z,100388.06
2023-04-30T09:02:10.674Z,100389.19
2023-04-30T09:05:14.996Z,100370.50
2023-04-30T09:08:19.682Z,100383.88
2023-04-30T09:11:32.122Z,100372.38
2023-04-30T09:14:40.205Z,100373.91
2023-04-30T09:17:42.801Z,100389.00
2023-04-30T09:21:01.889Z,100392.69
2023-04-30T09:24:05.614Z,100381.06
2023-04-30T09:27:21.935Z,100387.88
2023-04-30T09:30:34.932Z,100377.38
2023-04-30T09:33:47.419Z,100384.38
2023-04-30T09:36:57.321Z,100385.00
2023-04-30T09:39:59.956Z,100382.63
2023-04-30T09:43:03.468Z,100372.41
2023-04-30T09:46:06.100Z,100383.41
2023-04-30T09:49:11.451Z,100384.44
2023-04-30T09:52:15.854Z,100366.38
2023-04-30T09:55:20.751Z,100373.16
2023-04-30T09:58:25.447Z,100366.22
2023-04-30T10:01:29.239Z,100376.47
2023-04-30T10:04:40.830Z,100365.72
2023-04-30T10:07:44.048Z,100371.97
2023-04-30T10:10:50.547Z,100358.34
2023-04-30T10:14:03.986Z,100374.97
2023-04-30T10:17:14.450Z,100366.56
2023-04-30T10:20:19.089Z,100381.34
2023-04-30T10:23:22.623Z,100372.78
2023-04-30T10:26:25.843Z,100354.59
2023-04-30T10:29:28.580Z,100351.31
2023-04-30T10:32:46.240Z,100357.22
2023-04-30T10:35:59.775Z,100363.28
2023-04-30T10:39:03.651Z,100358.19
2023-04-30T10:42:10.050Z,100350.09
2023-04-30T10:45:12.735Z,100350.97
2023-04-30T10:48:24.060Z,100350.38
2023-04-30T10:51:45.065Z,100354.94
2023-04-30T10:54:50.608Z,100346.81
2023-04-30T10:57:55.521Z,100354.44
2023-04-30T11:01:23.071Z,100362.16
2023-04-30T11:04:26.498Z,100348.47
2023-04-30T11:07:29.071Z,100342.88
2023-04-30T11:10:35.950Z,100327.34
2023-04-30T11:13:44.543Z,100345.16
2023-04-30T11:16:51.281Z,100342.94
2023-04-30T11:19:54.756Z,100346.38
2023-04-30T11:23:21.738Z,100346.97
2023-04-30T11:26:50.908Z,100342.22
2023-04-30T11:29:54.721Z,100345.91
2023-04-30T11:32:59.906Z,100346.50
2023-04-30T11:36:02.701Z,100340.28
2023-04-30T11:39:07.974Z,100351.69
2023-04-30T11:42:10.460Z,100342.03
2023-04-30T11:45:17.733Z,100335.25
2023-04-30T11:48:22.426Z,100347.53
2023-04-30T11:51:25.174Z,100346.84
2023-04-30T11:54:31.862Z,100341.53
2023-04-30T11:57:42.166Z,100331.38
2023-04-30T12:00:44.743Z,100339.53
2023-04-30T12:03:53.245Z,100343.44
2023-04-30T12:06:56.064Z,100339.84
2023-04-30T12:09:59.406Z,100341.63
2023-04-30T12:13:02.647Z,100349.72
2023-04-30T12:16:05.507Z,100345.06
2023-04-30T12:19:09.780Z,100337.84
2023-04-30T12:22:12.225Z,100330.03
2023-04-30T12:25:17.869Z,100324.47
2023-04-30T12:28:23.341Z,100327.84
2023-04-30T12:31:25.981Z,100325.59
2023-04-30T12:34:32.168Z,100322.81
2023-04-30T12:37:36.430Z,100312.38
2023-04-30T12:40:41.549Z,100308.72
2023-04-30T12:43:44.560Z,100317.97
2023-04-30T12:46:53.420Z,100310.63
2023-04-30T12:49:57.085Z,100305.00
2023-04-30T12:53:02.925Z,100307.91
2023-04-30T12:56:18.587Z,100314.88
2023-04-30T12:59:21.355Z,100310.38
2023-04-30T13:02:25.567Z,100313.53
2023-04-30T13:05:28.123Z,100297.84
2023-04-30T13:08:32.537Z,100294.66
2023-04-30T13:11:36.466Z,100299.06
2023-04-30T13:14:39.149Z,100297.19
2023-04-30T13:17:45.875Z,100283.88
2023-04-30T13:20:48.678Z,100285.97
2023-04-30T13:23:53.723Z,100274.63
2023-04-30T13:26:59.374Z,100284.06
2023-04-30T13:30:03.908Z,100287.88
2023-04-30T13:33:06.424Z,100286.66
2023-04-30T13:36:09.138Z,100282.38
2023-04-30T13:39:11.785Z,100284.44
2023-04-30T13:42:14.815Z,100280.69
2023-04-30T13:45:17.595Z,100275.91
2023-04-30T13:48:20.135Z,100294.84
2023-04-30T13:51:22.671Z,100277.63
2023-04-30T13:54:25.478Z,100284.69
2023-04-30T13:57:30.051Z,100296.03
2023-04-30T14:00:32.698Z,100295.84
2023-04-30T14:03:35.712Z,100287.53
2023-04-30T14:06:38.935Z,100274.13
2023-04-30T14:09:41.529Z,100272.81
2023-04-30T14:12:43.996Z,100293.94
2023-04-30T14:15:47.686Z,100291.59
2023-04-30T14:18:50.215Z,100292.84
2023-04-30T14:21:52.675Z,100293.13
2023-04-30T14:24:55.149Z,100299.19
2023-04-30T14:27:57.671Z,100299.19
2023-04-30T14:31:00.954Z,100314.34
2023-04-30T14:34:03.943Z,100306.88
2023-04-30T14:37:06.817Z,100304.66
2023-04-30T14:40:10.093Z,100320.13
2023-04-30T14:43:13.191Z,100307.84
2023-04-30T14:46:15.879Z,100335.81
2023-04-30T14:49:18.483Z,100324.06
2023-04-30T14:52:21.320Z,100337.25
2023-04-30T14:55:24.314Z,100347.22
2023-04-30T14:58:26.954Z,100329.66
2023-04-30T15:01:30.562Z,100356.22
2023-04-30T15:04:33.561Z,100361.72
2023-04-30T15:07:36.923Z,100370.38
2023-04-30T15:10:39.603Z,100359.50
2023-04-30T15:13:42.201Z,100378.00
2023-04-30T15:16:44.783Z,100373.59
2023-04-30T15:19:47.372Z,100380.63
2023-04-30T15:22:50.882Z,100369.09
2023-04-30T15:25:53.555Z,100370.91
2023-04-30T15:28:56.882Z,100366.38
2023-04-30T15:31:59.797Z,100377.50
2023-04-30T15:35:02.467Z,100385.72
2023-04-30T15:38:05.028Z,100384.19
2023-04-30T15:41:07.539Z,100377.84
2023-04-30T15:44:10.192Z,100387.84
2023-04-30T15:47:12.812Z,100375.88
2023-04-30T15:50:15.760Z,100386.03
2023-04-30T15:53:18.318Z,100380.50
2023-04-30T15:56:25.665Z,100402.34
2023-04-30T15:59:28.519Z,100388.06
2023-04-30T16:02:31.750Z,100385.50
2023-04-30T16:05:38.705Z,100379.53
2023-04-30T16:08:43.489Z,100391.91
2023-04-30T16:11:49.314Z,100384.31
2023-04-30T16:14:51.773Z,100379.25
2023-04-30T16:17:54.271Z,100367.25
2023-04-30T16:20:57.402Z,100374.66
2023-04-30T16:24:00.011Z,100372.53
2023-04-30T16:27:02.725Z,100360.41
2023-04-30T16:30:06.036Z,100357.94
2023-04-30T16:33:09.334Z,100377.28
2023-04-30T16:36:12.142Z,100368.94
2023-04-30T16:39:17.059Z,100371.13
2023-04-30T16:42:19.898Z,100371.88
2023-04-30T16:45:22.508Z,100383.22
2023-04-30T16:48:25.262Z,100385.84
2023-04-30T16:51:27.738Z,100400.25
2023-04-30T16:54:30.556Z,100399.56
2023-04-30T16:57:33.235Z,100401.72
2023-04-30T17:00:36.101Z,100405.91
2023-04-30T17:03:38.737Z,100396.38
2023-04-30T17:06:41.586Z,100392.28
2023-04-30T17:09:44.155Z,100402.31
2023-04-30T17:12:46.926Z,100417.88
2023-04-30T17:15:49.499Z,100405.97
2023-04-30T17:18:51.989Z,100416.97
2023-04-30T17:21:54.964Z,100402.44
2023-04-30T17:24:59.681Z,100407.97
2023-04-30T17:28:02.758Z,100418.88
2023-04-30T17:31:07.271Z,100408.91
2023-04-30T17:34:10.240Z,100429.59
2023-04-30T17:37:13.022Z,100424.41
2023-04-30T17:40:16.074Z,100415.34
2023-04-30T17:43:19.269Z,100422.88
2023-04-30T17:46:23.028Z,100435.56
2023-04-30T17:49:25.927Z,100431.03
2023-04-30T17:52:28.502Z,100432.06
2023-04-30T17:55:32.314Z,100434.03
2023-04-30T17:58:35.610Z,100440.84
2023-04-30T18:01:40.225Z,100431.31
2023-04-30T18:04:43.439Z,100441.69
2023-04-30T18:07:47.119Z,100450.59
2023-04-30T18:10:49.895Z,100444.31
2023-04-30T18:13:53.045Z,100448.50
2023-04-30T18:16:55.864Z,100442.38
2023-04-30T18:19:58.838Z,100471.31
2023-04-30T18:23:01.471Z,100446.25
2023-04-30T18:26:04.843Z,100477.47
2023-04-30T18:29:07.954Z,100471.66
2023-04-30T18:32:10.626Z,100482.38
2023-04-30T18:35:14.834Z,100488.69
2023-04-30T18:38:18.451Z,100491.44
2023-04-30T18:41:21.206Z,100478.53
2023-04-30T18:44:33.632Z,100493.47
2023-04-30T18:47:36.497Z,100504.75
2023-04-30T18:50:40.173Z,100507.69
2023-04-30T18:53:45.365Z,100502.03
2023-04-30T18:56:48.500Z,100521.13
2023-04-30T18:59:51.346Z,100513.47
2023-04-30T19:02:54.239Z,100524.16
2023-04-30T19:05:57.646Z,100514.53
2023-04-30T19:09:00.961Z,100516.97
2023-04-30T19:12:03.851Z,100513.06
2023-04-30T19:15:08.263Z,100511.78
2023-04-30T19:18:12.847Z,100500.31
2023-04-30T19:21:15.578Z,100514.38
2023-04-30T19:24:18.277Z,100503.28
2023-04-30T19:27:21.217Z,100505.06
2023-04-30T19:30:23.964Z,100511.34
2023-04-30T19:33:27.819Z,100503.09
2023-04-30T19:36:31.245Z,100509.03
2023-04-30T19:39:34.907Z,100526.28
2023-04-30T19:42:39.526Z,100521.25
2023-04-30T19:45:52.122Z,100511.31
2023-04-30T19:48:55.305Z,100530.13
2023-04-30T19:51:58.267Z,100520.72
2023-04-30T19:55:00.952Z,100527.22
2023-04-30T19:58:04.984Z,100538.63
2023-04-30T20:01:07.734Z,100543.47
2023-04-30T20:04:10.552Z,100545.56
2023-04-30T20:07:13.903Z,100544.97
2023-04-30T20:10:17.382Z,100548.78
2023-04-30T20:13:21.090Z,100555.66
2023-04-30T20:16:23.930Z,100552.31
2023-04-30T20:19:26.652Z,100556.56
2023-04-30T20:22:29.411Z,100580.22
2023-04-30T20:25:31.911Z,100562.66
2023-04-30T20:28:34.775Z,100587.25
2023-04-30T20:31:37.836Z,100579.88
2023-04-30T20:34:41.794Z,100584.88
2023-04-30T20:37:45.007Z,100582.69
2023-04-30T20:40:47.536Z,100573.34
2023-04-30T20:43:52.154Z,100569.34
2023-04-30T20:46:54.788Z,100584.34
2023-04-30T20:49:57.926Z,100574.38
2023-04-30T20:53:00.634Z,100572.97
2023-04-30T20:56:03.723Z,100578.59
2023-04-30T20:59:06.487Z,100583.22
2023-04-30T21:02:10.380Z,100603.63
2023-04-30T21:05:13.251Z,100597.00
2023-04-30T21:08:15.660Z,100603.81
2023-04-30T21:11:19.403Z,100601.03
2023-04-30T21:14:22.003Z,100625.63
2023-04-30T21:17:24.389Z,100626.25
2023-04-30T21:20:27.182Z,100632.06
2023-04-30T21:23:30.101Z,100622.66
2023-04-30T21:26:32.705Z,100636.06
2023-04-30T21:29:35.522Z,100625.63
2023-04-30T21:32:38.207Z,100649.66
2023-04-30T21:35:41.004Z,100644.00
2023-04-30T21:38:44.149Z,100644.19
2023-04-30T21:41:46.607Z,100664.00
2023-04-30T21:44:49.152Z,100666.97
2023-04-30T21:47:51.863Z,100659.97
2023-04-30T21:50:54.610Z,100680.78
2023-04-30T21:53:57.414Z,100677.97
2023-04-30T21:57:01.109Z,100687.75
2023-04-30T22:00:06.434Z,100682.34
2023-04-30T22:03:10.322Z,100676.34
2023-04-30T22:06:13.108Z,100676.50
2023-04-30T22:09:15.833Z,100677.50
2023-04-30T22:12:21.632Z,100682.44
2023-04-30T22:15:27.444Z,100691.03
2023-04-30T22:18:34.137Z,100684.22
2023-04-30T22:21:36.677Z,100684.00
2023-04-30T22:24:39.686Z,100688.25
2023-04-30T22:27:42.204Z,100693.41
2023-04-30T22:30:45.260Z,100668.72
2023-04-30T22:33:47.927Z,100691.38
2023-04-30T22:36:50.502Z,100693.78
2023-04-30T22:39:52.932Z,100690.72
2023-04-30T22:42:55.958Z,100680.88
2023-04-30T22:45:59.413Z,100690.06
2023-04-30T22:49:02.094Z,100699.50
2023-04-30T22:52:04.621Z,100701.50
2023-04-30T22:55:08.108Z,100699.84
2023-04-30T22:58:10.635Z,100696.44
2023-04-30T23:01:13.165Z,100701.16
2023-04-30T23:04:16.115Z,100683.69
2023-04-30T23:07:18.618Z,100695.72
2023-04-30T23:10:21.359Z,100668.63
2023-04-30T23:13:23.828Z,100697.22
2023-04-30T23:16:27.151Z,100687.19
2023-04-30T23:19:29.652Z,100705.41
2023-04-30T23:22:32.110Z,100683.66
2023-04-30T23:25:34.535Z,100706.75
2023-04-30T23:28:38.018Z,100708.00
2023-04-30T23:31:40.554Z,100705.53
2023-04-30T23:34:43.068Z,100710.88
2023-04-30T23:37:45.709Z,100717.03
2023-04-30T23:40:48.388Z,100710.38
2023-04-30T23:43:51.586Z,100708.75
2023-04-30T23:46:55.900Z,100725.19
2023-04-30T23:49:58.572Z,100713.69
2023-04-30T23:53:01.510Z,100712.88
2023-04-30T23:56:04.405Z,100703.34
2023-04-30T23:59:07.243Z,100699.34
